Time;durP1;ratioP1;P1;durP2;ratioP2;P2;SDS_P1;SDS_P2;PMS_P1;PMS_P2;Temp;Humidity;BMP_temperature;BMP_pressure;BME280_temperature;BME280_humidity;BME280_pressure;Samples;Min_cycle;Max_cycle;Signal;HPM_P1;HPM_P2
2023/08/23 00:00:05;;;;;;;12.82;8.15;;;;;;;;;;12809161;23;20211;-72
2023/08/23 00:05:06;;;;;;;10.57;8.57;;;;;;;;;;12809017;23;20056;-72
2023/08/23 00:10:06;;;;;;;13.10;9.32;;;;;;;;;;12809061;23;20080;-72
2023/08/23 00:15:07;;;;;;;12.13;8.82;;;;;;;;;;12808728;23;20053;-72
2023/08/23 00:20:07;;;;;;;11.25;9.25;;;;;;;;;;12809774;23;20013;-72
2023/08/23 00:25:08;;;;;;;13.05;8.98;;;;;;;;;;12808224;23;20303;-72
2023/08/23 00:30:08;;;;;;;13.30;8.88;;;;;;;;;;12809482;23;20063;-72
2023/08/23 00:35:09;;;;;;;13.40;8.52;;;;;;;;;;12807794;23;19993;-72
2023/08/23 00:40:10;;;;;;;11.82;8.75;;;;;;;;;;12808461;23;20004;-72
2023/08/23 00:45:10;;;;;;;13.65;8.40;;;;;;;;;;12787708;23;19993;-72
2023/08/23 00:50:10;;;;;;;13.30;9.38;;;;;;;;;;12807434;23;20219;-72
2023/08/23 00:55:10;;;;;;;14.30;8.97;;;;;;;;;;12808040;23;20001;-72
2023/08/23 01:00:11;;;;;;;15.00;9.40;;;;;;;;;;12808715;23;20072;-72
2023/08/23 01:05:11;;;;;;;10.38;9.00;;;;;;;;;;12808852;23;20189;-72
2023/08/23 01:10:14;;;;;;;15.85;10.60;;;;;;;;;;12807434;23;20231;-72
2023/08/23 01:15:17;;;;;;;11.88;8.55;;;;;;;;;;12808002;23;20001;-72
2023/08/23 01:20:17;;;;;;;18.90;8.27;;;;;;;;;;12808790;23;20001;-72
2023/08/23 01:25:18;;;;;;;12.30;8.32;;;;;;;;;;12807657;23;19997;-72
2023/08/23 01:30:18;;;;;;;12.38;7.15;;;;;;;;;;12807720;23;20009;-72
2023/08/23 01:35:28;;;;;;;10.70;8.95;;;;;;;;;;12807550;23;20187;-72
2023/08/23 01:40:28;;;;;;;11.23;8.77;;;;;;;;;;12806448;23;20299;-72
2023/08/23 01:45:28;;;;;;;11.07;8.20;;;;;;;;;;12807777;23;20029;-72
2023/08/23 01:50:29;;;;;;;12.03;8.77;;;;;;;;;;12760741;23;20255;-71
2023/08/23 01:55:29;;;;;;;11.32;8.60;;;;;;;;;;12807476;23;20049;-72
2023/08/23 02:00:29;;;;;;;13.90;8.60;;;;;;;;;;12808949;23;19993;-72
2023/08/23 02:05:30;;;;;;;12.13;8.57;;;;;;;;;;12807431;23;19996;-71
2023/08/23 02:10:30;;;;;;;9.88;8.52;;;;;;;;;;12807430;23;20280;-71
2023/08/23 02:15:30;;;;;;;13.73;8.43;;;;;;;;;;12809558;23;20248;-73
2023/08/23 02:20:31;;;;;;;13.20;9.35;;;;;;;;;;12813303;23;20216;-71
2023/08/23 02:25:31;;;;;;;17.77;9.15;;;;;;;;;;12810859;23;20060;-72
2023/08/23 02:30:31;;;;;;;12.68;8.80;;;;;;;;;;12810698;23;20013;-74
2023/08/23 02:35:31;;;;;;;15.18;10.07;;;;;;;;;;12810502;23;20164;-72
2023/08/23 02:40:32;;;;;;;15.70;8.40;;;;;;;;;;12808909;23;20008;-72
2023/08/23 02:45:32;;;;;;;13.57;8.98;;;;;;;;;;12810906;23;20008;-71
2023/08/23 02:50:32;;;;;;;16.40;10.10;;;;;;;;;;12809601;23;19997;-71
2023/08/23 02:55:36;;;;;;;13.73;9.15;;;;;;;;;;12810749;23;20737;-71
2023/08/23 03:00:36;;;;;;;16.38;8.90;;;;;;;;;;12809831;23;19999;-72
2023/08/23 03:05:37;;;;;;;13.13;9.20;;;;;;;;;;12810756;23;20296;-73
2023/08/23 03:10:39;;;;;;;13.73;9.57;;;;;;;;;;12810180;23;19997;-71
2023/08/23 03:15:39;;;;;;;12.85;8.77;;;;;;;;;;12809424;23;20044;-73
2023/08/23 03:20:39;;;;;;;20.65;10.23;;;;;;;;;;12810185;23;20314;-71
2023/08/23 03:25:39;;;;;;;14.13;9.40;;;;;;;;;;12809734;23;20284;-72
2023/08/23 03:30:40;;;;;;;13.90;10.38;;;;;;;;;;12809571;23;20392;-73
2023/08/23 03:35:40;;;;;;;14.48;9.70;;;;;;;;;;12809825;23;19997;-72
2023/08/23 03:40:40;;;;;;;16.23;9.90;;;;;;;;;;12807612;23;20005;-72
2023/08/23 03:45:50;;;;;;;15.05;10.27;;;;;;;;;;12808832;23;20313;-72
2023/08/23 03:50:50;;;;;;;17.83;11.82;;;;;;;;;;12809873;23;20223;-72
2023/08/23 03:55:51;;;;;;;14.30;10.32;;;;;;;;;;12808950;23;20004;-73
2023/08/23 04:00:51;;;;;;;20.27;11.88;;;;;;;;;;12808759;23;20471;-73
2023/08/23 04:05:52;;;;;;;16.08;9.93;;;;;;;;;;12802695;23;19985;-72
2023/08/23 04:10:52;;;;;;;17.08;10.57;;;;;;;;;;12808799;23;19996;-75
2023/08/23 04:15:52;;;;;;;15.27;10.88;;;;;;;;;;12761224;23;20520;-72
2023/08/23 04:20:59;;;;;;;14.07;10.70;;;;;;;;;;12808183;23;19989;-73
2023/08/23 04:25:59;;;;;;;17.95;10.68;;;;;;;;;;12761072;23;19997;-73
2023/08/23 04:31:00;;;;;;;23.33;10.85;;;;;;;;;;12762268;23;20009;-73
2023/08/23 04:36:02;;;;;;;16.35;12.15;;;;;;;;;;12809832;23;20184;-69
2023/08/23 04:41:03;;;;;;;18.70;12.00;;;;;;;;;;12805066;23;20000;-70
2023/08/23 04:46:04;;;;;;;19.17;12.85;;;;;;;;;;12761151;23;20009;-72
2023/08/23 04:51:08;;;;;;;20.25;11.68;;;;;;;;;;12787154;23;20029;-73
2023/08/23 04:56:08;;;;;;;21.25;15.68;;;;;;;;;;12806806;23;20017;-68
2023/08/23 05:01:08;;;;;;;17.00;11.48;;;;;;;;;;12807124;23;20178;-68
2023/08/23 05:06:08;;;;;;;18.20;11.45;;;;;;;;;;12803418;23;20051;-67
2023/08/23 05:11:09;;;;;;;15.48;12.30;;;;;;;;;;12801221;23;20096;-67
2023/08/23 05:16:12;;;;;;;19.77;12.07;;;;;;;;;;12800027;23;19992;-67
2023/08/23 05:21:12;;;;;;;19.55;10.15;;;;;;;;;;12802378;23;19997;-68
2023/08/23 05:26:13;;;;;;;17.70;11.55;;;;;;;;;;12800294;23;20202;-67
2023/08/23 05:31:15;;;;;;;15.60;10.53;;;;;;;;;;12802110;23;20314;-69
2023/08/23 05:36:16;;;;;;;22.35;10.63;;;;;;;;;;12802748;23;19992;-69
2023/08/23 05:41:16;;;;;;;15.18;9.85;;;;;;;;;;12801619;23;20001;-69
2023/08/23 05:46:16;;;;;;;15.27;10.77;;;;;;;;;;12805238;23;20005;-68
2023/08/23 05:51:16;;;;;;;14.82;9.93;;;;;;;;;;12807628;23;20041;-68
2023/08/23 05:56:17;;;;;;;16.23;9.77;;;;;;;;;;12809817;23;20367;-68
2023/08/23 06:01:17;;;;;;;24.40;10.65;;;;;;;;;;12810420;23;19993;-68
2023/08/23 06:06:17;;;;;;;16.63;9.98;;;;;;;;;;12810141;23;20187;-68
2023/08/23 06:11:17;;;;;;;15.27;10.10;;;;;;;;;;12809953;23;19996;-69
2023/08/23 06:16:18;;;;;;;17.40;9.02;;;;;;;;;;12809367;23;20023;-68
2023/08/23 06:21:18;;;;;;;15.60;8.55;;;;;;;;;;12808631;23;20215;-68
2023/08/23 06:26:18;;;;;;;16.80;9.15;;;;;;;;;;12811185;23;20179;-69
2023/08/23 06:31:19;;;;;;;14.95;8.13;;;;;;;;;;12809577;23;20008;-68
2023/08/23 06:36:19;;;;;;;18.27;8.88;;;;;;;;;;12809379;23;20272;-68
2023/08/23 06:41:20;;;;;;;21.02;9.95;;;;;;;;;;12803499;23;20287;-70
2023/08/23 06:46:20;;;;;;;16.60;9.00;;;;;;;;;;12806015;23;20005;-68
2023/08/23 06:51:20;;;;;;;14.30;8.10;;;;;;;;;;12805999;23;19989;-68
2023/08/23 06:56:21;;;;;;;18.83;8.43;;;;;;;;;;12810199;23;20012;-69
2023/08/23 07:01:21;;;;;;;12.77;7.85;;;;;;;;;;12809801;23;20430;-69
2023/08/23 07:06:22;;;;;;;15.55;7.80;;;;;;;;;;12809443;23;19993;-70
2023/08/23 07:11:22;;;;;;;12.35;7.32;;;;;;;;;;12811073;23;19993;-69
2023/08/23 07:16:22;;;;;;;12.43;6.88;;;;;;;;;;12809125;23;20019;-69
2023/08/23 07:21:22;;;;;;;11.98;6.18;;;;;;;;;;12808548;23;19989;-69
2023/08/23 07:26:23;;;;;;;11.63;6.65;;;;;;;;;;12808563;23;20298;-68
2023/08/23 07:31:23;;;;;;;11.73;6.63;;;;;;;;;;12788211;23;20009;-69
2023/08/23 07:36:24;;;;;;;15.63;6.43;;;;;;;;;;12808429;23;20016;-69
2023/08/23 07:41:24;;;;;;;11.23;5.65;;;;;;;;;;12804708;23;20001;-69
2023/08/23 07:46:24;;;;;;;11.38;5.63;;;;;;;;;;12808695;23;20156;-69
2023/08/23 07:51:24;;;;;;;14.57;6.38;;;;;;;;;;12808469;23;20329;-69
2023/08/23 07:56:25;;;;;;;9.18;6.07;;;;;;;;;;12808386;23;20072;-69
2023/08/23 08:01:25;;;;;;;8.52;6.38;;;;;;;;;;12808270;23;19996;-69
2023/08/23 08:06:26;;;;;;;16.02;5.35;;;;;;;;;;12808349;23;20043;-68
2023/08/23 08:11:26;;;;;;;10.68;5.80;;;;;;;;;;12808260;23;19997;-69
2023/08/23 08:16:26;;;;;;;8.52;5.70;;;;;;;;;;12796954;23;20005;-69
2023/08/23 08:21:26;;;;;;;12.77;5.30;;;;;;;;;;12808169;23;20202;-69
2023/08/23 08:26:27;;;;;;;15.82;5.78;;;;;;;;;;12807902;23;20047;-68
2023/08/23 08:31:27;;;;;;;11.75;5.70;;;;;;;;;;12808323;23;20012;-68
2023/08/23 08:36:27;;;;;;;12.82;6.20;;;;;;;;;;12760159;23;20291;-68
2023/08/23 08:41:28;;;;;;;6.35;4.88;;;;;;;;;;12801946;23;20517;-69
2023/08/23 08:46:28;;;;;;;9.77;4.80;;;;;;;;;;12807330;23;20282;-69
2023/08/23 08:51:29;;;;;;;7.40;5.10;;;;;;;;;;12808206;23;20195;-69
2023/08/23 08:56:30;;;;;;;7.05;4.75;;;;;;;;;;12807016;23;20382;-69
2023/08/23 09:01:32;;;;;;;11.02;5.00;;;;;;;;;;12807613;23;20001;-69
2023/08/23 09:06:34;;;;;;;7.32;4.63;;;;;;;;;;12807375;23;19997;-69
2023/08/23 09:11:34;;;;;;;4.53;3.80;;;;;;;;;;12807339;23;20411;-69
2023/08/23 09:16:34;;;;;;;7.22;4.07;;;;;;;;;;12808551;23;20004;-69
2023/08/23 09:21:35;;;;;;;6.03;4.07;;;;;;;;;;12807307;23;20195;-69
2023/08/23 09:26:35;;;;;;;5.70;3.72;;;;;;;;;;12810270;23;20012;-69
2023/08/23 09:31:35;;;;;;;6.60;4.03;;;;;;;;;;12813906;23;20276;-69
2023/08/23 09:36:41;;;;;;;6.43;4.22;;;;;;;;;;12812893;23;19997;-71
2023/08/23 09:41:42;;;;;;;8.57;4.00;;;;;;;;;;12807447;23;20157;-69
2023/08/23 09:46:44;;;;;;;7.43;4.90;;;;;;;;;;12812647;23;20008;-70
2023/08/23 09:51:45;;;;;;;8.90;4.47;;;;;;;;;;12813027;23;20037;-69
2023/08/23 09:56:46;;;;;;;7.43;4.35;;;;;;;;;;12812748;23;20031;-69
2023/08/23 10:01:47;;;;;;;5.90;4.22;;;;;;;;;;12813134;23;20023;-69
2023/08/23 10:06:48;;;;;;;4.68;3.28;;;;;;;;;;12811478;23;20028;-69
2023/08/23 10:11:49;;;;;;;7.55;4.00;;;;;;;;;;12765607;23;19993;-68
2023/08/23 10:16:50;;;;;;;4.68;3.00;;;;;;;;;;12792567;23;20012;-68
2023/08/23 10:21:50;;;;;;;6.95;3.20;;;;;;;;;;12812896;23;19997;-67
2023/08/23 10:26:52;;;;;;;4.85;3.10;;;;;;;;;;12812706;23;20416;-67
2023/08/23 10:31:54;;;;;;;7.55;3.58;;;;;;;;;;12799229;23;20153;-72
2023/08/23 10:36:54;;;;;;;5.32;3.25;;;;;;;;;;12811006;23;19989;-72
2023/08/23 10:41:54;;;;;;;4.80;3.20;;;;;;;;;;12802879;23;19989;-72
2023/08/23 10:46:55;;;;;;;5.97;3.25;;;;;;;;;;12808320;23;20254;-73
2023/08/23 10:51:56;;;;;;;5.95;3.38;;;;;;;;;;12809498;23;19989;-75
2023/08/23 10:56:56;;;;;;;4.55;3.55;;;;;;;;;;12762525;23;20358;-72
2023/08/23 11:01:56;;;;;;;6.38;4.00;;;;;;;;;;12807706;23;20267;-71
2023/08/23 11:06:56;;;;;;;13.60;4.68;;;;;;;;;;12761529;23;20027;-72
2023/08/23 11:11:57;;;;;;;12.18;3.28;;;;;;;;;;12808727;23;20032;-71
2023/08/23 11:16:57;;;;;;;15.00;3.15;;;;;;;;;;12807657;23;20242;-71
2023/08/23 11:21:59;;;;;;;7.30;3.67;;;;;;;;;;12807848;23;19989;-70
2023/08/23 11:27:00;;;;;;;12.63;4.05;;;;;;;;;;12808990;23;20329;-70
2023/08/23 11:32:00;;;;;;;9.65;4.85;;;;;;;;;;12807350;23;20180;-70
2023/08/23 11:37:05;;;;;;;5.72;4.53;;;;;;;;;;12808349;23;20325;-70
2023/08/23 11:42:06;;;;;;;7.15;4.88;;;;;;;;;;12792388;23;20403;-70
2023/08/23 11:47:09;;;;;;;5.23;4.70;;;;;;;;;;12807828;23;20040;-70
2023/08/23 11:52:09;;;;;;;8.90;5.00;;;;;;;;;;12804271;23;20247;-70
2023/08/23 11:57:13;;;;;;;7.68;5.13;;;;;;;;;;12807301;23;20279;-70
2023/08/23 12:02:14;;;;;;;6.85;4.05;;;;;;;;;;12806940;23;19997;-70
2023/08/23 12:07:14;;;;;;;11.48;5.18;;;;;;;;;;12808174;23;20237;-70
2023/08/23 12:12:14;;;;;;;10.93;4.90;;;;;;;;;;12807473;23;20613;-71
2023/08/23 12:17:15;;;;;;;9.93;5.57;;;;;;;;;;12806561;23;20251;-70
2023/08/23 12:22:15;;;;;;;14.05;6.07;;;;;;;;;;12807714;23;19989;-70
2023/08/23 12:27:15;;;;;;;7.17;5.73;;;;;;;;;;12807571;23;20188;-70
2023/08/23 12:32:15;;;;;;;8.77;5.38;;;;;;;;;;12806780;23;19996;-70
2023/08/23 12:37:16;;;;;;;6.93;5.18;;;;;;;;;;12807147;23;20027;-70
2023/08/23 12:42:17;;;;;;;5.88;4.90;;;;;;;;;;12799267;23;20027;-71
2023/08/23 12:47:17;;;;;;;6.30;5.05;;;;;;;;;;12806171;23;20303;-70
2023/08/23 12:52:17;;;;;;;7.82;4.53;;;;;;;;;;12807106;23;20001;-70
2023/08/23 12:57:18;;;;;;;6.95;4.60;;;;;;;;;;12806651;23;20016;-70
2023/08/23 13:02:18;;;;;;;7.50;5.10;;;;;;;;;;12805559;23;19997;-70
2023/08/23 13:07:18;;;;;;;11.00;5.80;;;;;;;;;;12806141;23;20020;-70
2023/08/23 13:12:18;;;;;;;5.50;4.82;;;;;;;;;;12759155;23;20005;-72
2023/08/23 13:17:19;;;;;;;8.15;5.25;;;;;;;;;;12805627;23;20314;-67
2023/08/23 13:22:19;;;;;;;7.25;4.70;;;;;;;;;;12805731;23;20084;-70
2023/08/23 13:27:19;;;;;;;8.20;4.85;;;;;;;;;;12758861;23;20013;-71
2023/08/23 13:32:20;;;;;;;9.32;4.85;;;;;;;;;;12806008;23;20005;-72
2023/08/23 13:37:21;;;;;;;8.38;5.93;;;;;;;;;;12805626;23;19997;-72
2023/08/23 13:42:21;;;;;;;12.80;5.90;;;;;;;;;;12798405;23;19993;-72
2023/08/23 13:47:21;;;;;;;10.95;5.00;;;;;;;;;;12805794;23;20089;-71
2023/08/23 13:52:21;;;;;;;5.20;4.70;;;;;;;;;;12805383;23;20314;-71
2023/08/23 13:57:22;;;;;;;6.10;4.97;;;;;;;;;;12806598;23;20005;-71
2023/08/23 14:02:22;;;;;;;7.85;5.22;;;;;;;;;;12758208;23;20183;-71
2023/08/23 14:07:22;;;;;;;11.40;5.97;;;;;;;;;;12805456;23;20008;-71
2023/08/23 14:12:22;;;;;;;11.32;7.32;;;;;;;;;;12806867;23;19997;-72
2023/08/23 14:17:23;;;;;;;8.68;6.40;;;;;;;;;;12762640;23;20051;-71
2023/08/23 14:22:23;;;;;;;8.40;5.40;;;;;;;;;;12809229;23;20001;-71
2023/08/23 14:27:23;;;;;;;9.03;5.63;;;;;;;;;;12811100;23;20298;-70
2023/08/23 14:32:24;;;;;;;10.13;6.05;;;;;;;;;;12808371;23;20298;-72
2023/08/23 14:37:25;;;;;;;11.83;5.03;;;;;;;;;;12809053;23;20005;-71
2023/08/23 14:42:27;;;;;;;8.48;5.78;;;;;;;;;;12800505;23;20017;-72
2023/08/23 14:47:27;;;;;;;7.40;5.20;;;;;;;;;;12810268;23;20028;-72
2023/08/23 14:52:27;;;;;;;9.45;6.25;;;;;;;;;;12808897;23;20051;-71
2023/08/23 14:57:27;;;;;;;14.30;9.90;;;;;;;;;;12806934;23;20255;-71
2023/08/23 15:02:28;;;;;;;8.05;5.05;;;;;;;;;;12806888;23;20048;-72
2023/08/23 15:07:28;;;;;;;9.52;5.45;;;;;;;;;;12801259;23;20199;-70
2023/08/23 15:12:28;;;;;;;7.60;5.53;;;;;;;;;;12758812;23;20029;-72
2023/08/23 15:17:29;;;;;;;14.18;5.20;;;;;;;;;;12805247;23;20346;-72
2023/08/23 15:22:29;;;;;;;9.30;4.80;;;;;;;;;;12805749;23;20279;-72
2023/08/23 15:27:29;;;;;;;9.18;5.25;;;;;;;;;;12809002;23;20214;-72
2023/08/23 15:32:29;;;;;;;8.23;5.18;;;;;;;;;;12808840;23;20052;-72
2023/08/23 15:37:31;;;;;;;11.13;5.45;;;;;;;;;;12808235;23;20029;-72
2023/08/23 15:42:32;;;;;;;6.53;4.72;;;;;;;;;;12800410;23;20275;-72
2023/08/23 15:47:32;;;;;;;10.07;6.97;;;;;;;;;;12809286;23;20004;-72
2023/08/23 15:52:32;;;;;;;11.52;5.72;;;;;;;;;;12808706;23;20190;-72
2023/08/23 15:57:33;;;;;;;10.07;5.33;;;;;;;;;;12808826;23;20005;-72
2023/08/23 16:02:33;;;;;;;8.23;4.82;;;;;;;;;;12808570;23;19997;-72
2023/08/23 16:07:33;;;;;;;9.48;6.15;;;;;;;;;;12808158;23;20056;-72
2023/08/23 16:12:34;;;;;;;8.90;5.43;;;;;;;;;;12807969;23;20009;-72
2023/08/23 16:17:34;;;;;;;6.50;5.13;;;;;;;;;;12809363;23;19997;-72
2023/08/23 16:22:34;;;;;;;10.90;5.90;;;;;;;;;;12807490;23;20008;-70
2023/08/23 16:27:35;;;;;;;8.30;6.07;;;;;;;;;;12802686;23;20012;-70
2023/08/23 16:32:35;;;;;;;17.08;14.18;;;;;;;;;;12808651;23;20004;-71
2023/08/23 16:37:37;;;;;;;7.00;6.00;;;;;;;;;;12760957;23;20005;-71
2023/08/23 16:42:37;;;;;;;10.43;7.30;;;;;;;;;;12798636;23;20048;-71
2023/08/23 16:47:37;;;;;;;19.70;9.33;;;;;;;;;;12808422;23;20024;-71
2023/08/23 16:52:38;;;;;;;17.40;8.70;;;;;;;;;;12808217;23;20008;-71
2023/08/23 16:57:38;;;;;;;11.30;8.37;;;;;;;;;;12787640;23;20223;-71
2023/08/23 17:02:42;;;;;;;11.23;7.22;;;;;;;;;;12808556;23;20060;-71
2023/08/23 17:07:42;;;;;;;14.80;7.80;;;;;;;;;;12808030;23;19993;-70
2023/08/23 17:12:43;;;;;;;15.35;7.28;;;;;;;;;;12807926;23;20009;-71
2023/08/23 17:17:51;;;;;;;16.05;7.93;;;;;;;;;;12808410;23;20005;-74
2023/08/23 17:22:55;;;;;;;14.18;8.27;;;;;;;;;;12808184;23;19997;-73
2023/08/23 17:28:08;;;;;;;22.25;8.13;;;;;;;;;;12809356;23;20211;-82
2023/08/23 17:33:11;;;;;;;17.02;7.55;;;;;;;;;;12761487;23;20008;-75
2023/08/23 17:38:12;;;;;;;18.02;8.27;;;;;;;;;;12807726;23;20017;-73
2023/08/23 17:43:12;;;;;;;16.55;8.27;;;;;;;;;;12758565;23;20103;-72
2023/08/23 17:48:13;;;;;;;14.45;8.80;;;;;;;;;;12809516;23;20005;-72
2023/08/23 17:53:13;;;;;;;21.30;8.80;;;;;;;;;;12810076;23;19997;-71
2023/08/23 17:58:13;;;;;;;28.90;19.23;;;;;;;;;;12811111;23;20295;-74
2023/08/23 18:03:14;;;;;;;14.10;7.82;;;;;;;;;;12811376;23;20343;-72
2023/08/23 18:08:14;;;;;;;21.23;8.32;;;;;;;;;;12810678;23;20021;-73
2023/08/23 18:13:14;;;;;;;12.47;7.97;;;;;;;;;;12762862;23;20240;-71
2023/08/23 18:18:15;;;;;;;15.38;9.10;;;;;;;;;;12810336;23;20005;-73
2023/08/23 18:23:15;;;;;;;12.40;8.47;;;;;;;;;;12809806;23;20063;-72
2023/08/23 18:28:15;;;;;;;15.23;7.87;;;;;;;;;;12810361;23;20046;-70
2023/08/23 18:33:16;;;;;;;15.27;8.40;;;;;;;;;;12810533;23;20291;-73
2023/08/23 18:38:16;;;;;;;17.38;8.45;;;;;;;;;;12810624;23;20353;-69
2023/08/23 18:43:16;;;;;;;19.17;9.05;;;;;;;;;;12795342;23;20005;-72
2023/08/23 18:48:16;;;;;;;14.40;9.27;;;;;;;;;;12810340;23;20048;-71
2023/08/23 18:53:17;;;;;;;18.42;8.30;;;;;;;;;;12809988;23;20289;-69
2023/08/23 18:58:17;;;;;;;16.63;9.82;;;;;;;;;;12757012;23;20338;-69
2023/08/23 19:03:18;;;;;;;26.35;10.38;;;;;;;;;;12805422;23;20279;-69
2023/08/23 19:08:19;;;;;;;17.00;9.50;;;;;;;;;;12805858;23;19997;-70
2023/08/23 19:13:19;;;;;;;16.13;9.57;;;;;;;;;;12806200;23;19997;-69
2023/08/23 19:18:20;;;;;;;24.55;9.52;;;;;;;;;;12806881;23;20004;-69
2023/08/23 19:23:21;;;;;;;57.63;51.95;;;;;;;;;;12809488;23;20325;-69
2023/08/23 19:28:21;;;;;;;18.00;10.27;;;;;;;;;;12808127;23;20036;-68
2023/08/23 19:33:21;;;;;;;15.70;9.35;;;;;;;;;;12807925;23;20080;-68
2023/08/23 19:38:22;;;;;;;13.67;8.47;;;;;;;;;;12808452;23;20116;-71
2023/08/23 19:43:24;;;;;;;14.67;8.57;;;;;;;;;;12759807;23;20361;-73
2023/08/23 19:48:24;;;;;;;32.90;25.20;;;;;;;;;;12807067;23;20211;-71
2023/08/23 19:53:24;;;;;;;14.65;8.20;;;;;;;;;;12808197;23;20013;-69
2023/08/23 19:58:25;;;;;;;13.65;7.68;;;;;;;;;;12807569;23;20008;-69
2023/08/23 20:03:25;;;;;;;18.13;9.18;;;;;;;;;;12807959;23;19993;-71
2023/08/23 20:08:25;;;;;;;15.00;8.48;;;;;;;;;;12760650;23;20362;-70
2023/08/23 20:13:26;;;;;;;17.30;9.55;;;;;;;;;;12805399;23;20048;-73
2023/08/23 20:18:26;;;;;;;18.60;8.45;;;;;;;;;;12805009;23;20278;-73
2023/08/23 20:23:26;;;;;;;12.70;7.20;;;;;;;;;;12805261;23;20009;-73
2023/08/23 20:28:27;;;;;;;57.58;52.15;;;;;;;;;;12806594;23;20041;-74
2023/08/23 20:33:27;;;;;;;13.63;9.18;;;;;;;;;;12761457;23;19985;-74
2023/08/23 20:38:27;;;;;;;18.20;8.40;;;;;;;;;;12807828;23;19993;-73
2023/08/23 20:43:28;;;;;;;14.43;9.10;;;;;;;;;;12792980;23;20040;-73
2023/08/23 20:48:28;;;;;;;12.10;7.90;;;;;;;;;;12806672;23;20585;-74
2023/08/23 20:53:33;;;;;;;15.02;9.07;;;;;;;;;;12807118;23;20000;-72
2023/08/23 20:58:33;;;;;;;18.40;9.13;;;;;;;;;;12806487;23;20199;-77
2023/08/23 21:03:33;;;;;;;13.63;9.40;;;;;;;;;;12806661;23;20028;-75
2023/08/23 21:08:34;;;;;;;12.37;8.83;;;;;;;;;;12806649;23;20027;-72
2023/08/23 21:13:34;;;;;;;13.55;8.88;;;;;;;;;;12808711;23;20183;-74
2023/08/23 21:18:34;;;;;;;19.45;9.13;;;;;;;;;;12808690;23;20083;-76
2023/08/23 21:23:35;;;;;;;12.48;8.68;;;;;;;;;;12808042;23;20001;-73
2023/08/23 21:28:35;;;;;;;14.65;8.30;;;;;;;;;;12807925;23;20007;-74
2023/08/23 21:33:35;;;;;;;13.15;8.73;;;;;;;;;;12806819;23;20072;-75
2023/08/23 21:38:37;;;;;;;11.70;9.40;;;;;;;;;;12806997;23;20052;-74
2023/08/23 21:43:38;;;;;;;14.52;8.43;;;;;;;;;;12794243;23;20012;-74
2023/08/23 21:48:38;;;;;;;48.72;42.45;;;;;;;;;;12806207;23;20181;-74
2023/08/23 21:53:38;;;;;;;15.40;9.30;;;;;;;;;;12806075;23;20019;-72
2023/08/23 21:58:39;;;;;;;14.52;9.15;;;;;;;;;;12808056;23;20190;-68
2023/08/23 22:03:40;;;;;;;11.63;8.52;;;;;;;;;;12810698;23;20002;-71
2023/08/23 22:08:41;;;;;;;22.63;9.98;;;;;;;;;;12812934;23;20009;-71
2023/08/23 22:13:44;;;;;;;15.95;9.63;;;;;;;;;;12766589;23;19993;-71
2023/08/23 22:18:46;;;;;;;19.95;10.75;;;;;;;;;;12814227;23;20001;-72
2023/08/23 22:23:46;;;;;;;25.88;12.45;;;;;;;;;;12816911;23;20000;-72
2023/08/23 22:28:47;;;;;;;18.47;11.57;;;;;;;;;;12813300;23;20060;-72
2023/08/23 22:33:47;;;;;;;15.63;10.37;;;;;;;;;;12814547;23;20260;-72
2023/08/23 22:38:47;;;;;;;19.93;10.33;;;;;;;;;;12819196;23;20043;-72
2023/08/23 22:43:48;;;;;;;19.15;10.02;;;;;;;;;;12806197;23;20279;-71
2023/08/23 22:48:48;;;;;;;17.92;9.27;;;;;;;;;;12820607;23;20024;-71
2023/08/23 22:53:49;;;;;;;15.13;9.77;;;;;;;;;;12817914;23;20295;-71
2023/08/23 22:58:49;;;;;;;16.67;9.88;;;;;;;;;;12817692;23;20040;-72
2023/08/23 23:03:49;;;;;;;17.33;10.05;;;;;;;;;;12817851;23;19993;-71
2023/08/23 23:08:49;;;;;;;17.02;10.80;;;;;;;;;;12816723;23;20019;-71
2023/08/23 23:13:50;;;;;;;18.33;10.35;;;;;;;;;;12815910;23;20318;-71
2023/08/23 23:18:51;;;;;;;23.92;11.38;;;;;;;;;;12816411;23;19997;-71
2023/08/23 23:23:51;;;;;;;21.52;10.90;;;;;;;;;;12817670;23;20164;-71
2023/08/23 23:28:51;;;;;;;15.02;10.45;;;;;;;;;;12819348;23;20340;-71
2023/08/23 23:33:52;;;;;;;16.00;9.95;;;;;;;;;;12819859;23;19997;-72
2023/08/23 23:38:52;;;;;;;14.27;9.98;;;;;;;;;;12819868;23;20284;-71
2023/08/23 23:43:52;;;;;;;20.10;10.80;;;;;;;;;;12804208;23;20007;-72
2023/08/23 23:48:52;;;;;;;14.23;9.57;;;;;;;;;;12819208;23;20337;-71
2023/08/23 23:53:53;;;;;;;12.43;8.95;;;;;;;;;;12819417;23;20211;-71
2023/08/23 23:58:53;;;;;;;18.10;10.25;;;;;;;;;;12819433;23;19993;-71
